Terminal Aerodrome Forecast
Issued by NWS Portland, ME

Home | Current Version | Previous Version | Text Only | Print | Product List | Glossary On
Versions: 1 2 3 4 5 6 7 8 9 10 11 12 13 14 15 16 17 18 19 20 21 22 23
000
FTUS41 KGYX 250520
TAFCON
TAF
KCON 250520Z 2506/2606 VRB04KT P6SM SCT120 OVC200
     FM251300 09010KT P6SM -SHRA SCT020 BKN050 OVC090
     FM251600 07017G25KT 4SM -RA BR BKN012 OVC020
     FM252100 05015G21KT 3SM -SHRA BR OVC007
     FM260100 02014G24KT 4SM -SHRA BR OVC003=

USA.gov is the U.S. government's official web portal to all federal, state and local government web resources and services.